logo
Search for airport 
image banner adimage banner adimage banner ad
image banner ad

FAHI - Halfweg

Located in Vredenburg, South Africa

ICAO - FAHI, IATA -

Data provided by Airmate  

General information

Coordinates: S30°0'48" E20°8'21"
Elevation is 3159 feet MSL.
 
View others Airports in Northern Cape

Operational data

Special qualification required
Current time UTC:
Current local time:
Weather at : - ( 0 km )
METAR: MMMM 251820Z 35006KT 7SM SKC 34/04 A3017 RMK HZY
View NOTAMs / SUP AIP / TFR affecting this airport [VIEW]
Communications frequencies: [VIEW]

Runways:

RWY identifierQFULength (ft)Width (ft)SurfaceLDA (ft)
09308449UNK
27308449UNK

Airport contact information

Address: Vredenburg South Africa

Satellite view of FAHI